Time;durP1;ratioP1;P1;durP2;ratioP2;P2;SDS_P1;SDS_P2;PMS_P1;PMS_P2;Temp;Humidity;BMP_temperature;BMP_pressure;BME280_temperature;BME280_humidity;BME280_pressure;Samples;Min_cycle;Max_cycle;Signal;HPM_P1;HPM_P2
2022/03/26 00:01:58;;;;;;;19.08;10.23;;;7.40;49.70;;;;;;4970138;28;20041;-78
2022/03/26 00:04:23;;;;;;;19.77;9.30;;;7.30;49.60;;;;;;4977324;28;20499;-78
2022/03/26 00:06:49;;;;;;;24.20;9.75;;;7.30;49.60;;;;;;4983436;28;20037;-77
2022/03/26 00:09:14;;;;;;;21.25;10.05;;;7.20;49.70;;;;;;4993077;28;20027;-77
2022/03/26 00:11:40;;;;;;;19.25;9.88;;;7.20;49.90;;;;;;4965436;28;20039;-78
2022/03/26 00:14:06;;;;;;;21.80;10.30;;;7.10;50.00;;;;;;4971697;28;20038;-78
2022/03/26 00:16:33;;;;;;;17.67;8.63;;;7.20;50.20;;;;;;4967040;28;20038;-78
2022/03/26 00:18:58;;;;;;;23.65;10.88;;;7.10;50.30;;;;;;4979515;28;20498;-78
2022/03/26 00:21:24;;;;;;;21.55;10.00;;;7.10;50.40;;;;;;4982535;28;20030;-79
2022/03/26 00:23:50;;;;;;;21.65;10.65;;;7.10;50.40;;;;;;4999143;28;20049;-78
2022/03/26 00:26:15;;;;;;;24.23;10.80;;;7.00;50.50;;;;;;4961460;28;20037;-78
2022/03/26 00:28:41;;;;;;;21.73;11.18;;;7.00;50.50;;;;;;4988055;28;20719;-78
2022/03/26 00:31:07;;;;;;;20.23;9.55;;;7.00;50.60;;;;;;5008738;28;20042;-78
2022/03/26 00:33:32;;;;;;;18.40;9.27;;;6.90;50.70;;;;;;4996194;28;20048;-79
2022/03/26 00:35:58;;;;;;;20.58;10.32;;;6.90;50.90;;;;;;5009233;28;20034;-78
2022/03/26 00:38:24;;;;;;;21.75;10.43;;;6.90;50.90;;;;;;5011092;28;20030;-77
2022/03/26 00:40:49;;;;;;;19.75;10.27;;;6.90;51.00;;;;;;4988972;28;20054;-78
2022/03/26 00:43:15;;;;;;;19.75;10.05;;;6.80;50.90;;;;;;4992481;28;20049;-78
2022/03/26 00:45:42;;;;;;;17.98;9.63;;;6.80;51.20;;;;;;4980545;28;20048;-78
2022/03/26 00:48:07;;;;;;;20.02;10.05;;;6.70;51.20;;;;;;5002778;28;20442;-77
2022/03/26 00:50:34;;;;;;;21.45;9.90;;;6.70;51.20;;;;;;4990762;28;20033;-78
2022/03/26 00:52:59;;;;;;;18.33;9.55;;;6.60;51.30;;;;;;5009414;28;20056;-79
2022/03/26 00:55:25;;;;;;;26.60;10.50;;;6.60;51.40;;;;;;5003823;28;20644;-77
2022/03/26 00:57:51;;;;;;;27.15;11.13;;;6.50;51.50;;;;;;4993146;28;20044;-77
2022/03/26 01:00:17;;;;;;;22.77;10.20;;;6.50;51.60;;;;;;4978195;28;20130;-77
2022/03/26 01:02:42;;;;;;;23.58;10.77;;;6.50;51.70;;;;;;4996429;28;20136;-78
2022/03/26 01:05:10;;;;;;;20.17;10.10;;;6.40;51.80;;;;;;4996549;28;20045;-77
2022/03/26 01:07:36;;;;;;;23.08;11.73;;;6.40;51.90;;;;;;4987103;28;20061;-77
2022/03/26 01:10:02;;;;;;;21.70;10.55;;;6.30;51.90;;;;;;5002258;28;20065;-77
2022/03/26 01:12:27;;;;;;;23.05;11.15;;;6.30;51.90;;;;;;4991692;28;20037;-77
2022/03/26 01:14:53;;;;;;;25.35;11.48;;;6.30;52.00;;;;;;5002904;28;20039;-78
2022/03/26 01:17:19;;;;;;;22.08;11.20;;;6.20;52.10;;;;;;5002791;28;20581;-77
2022/03/26 01:19:44;;;;;;;19.90;10.30;;;6.20;52.20;;;;;;4982998;28;20064;-77
2022/03/26 01:22:10;;;;;;;25.42;10.50;;;6.20;52.30;;;;;;4998732;28;20033;-78
2022/03/26 01:24:36;;;;;;;22.15;10.48;;;6.20;52.40;;;;;;5000296;28;20513;-78
2022/03/26 01:27:01;;;;;;;22.40;11.02;;;6.20;52.50;;;;;;4954625;28;20515;-77
2022/03/26 01:29:27;;;;;;;25.65;11.32;;;6.10;52.50;;;;;;4990129;28;20112;-78
2022/03/26 01:31:53;;;;;;;20.58;9.77;;;6.10;52.50;;;;;;4999952;28;20064;-78
2022/03/26 01:34:18;;;;;;;21.95;10.20;;;6.00;52.50;;;;;;5000899;28;20033;-77
2022/03/26 01:36:44;;;;;;;20.20;10.95;;;6.00;52.70;;;;;;4987999;28;20099;-78
2022/03/26 01:39:10;;;;;;;21.13;10.82;;;6.00;52.80;;;;;;5007202;28;20046;-77
2022/03/26 01:41:35;;;;;;;20.90;9.73;;;6.00;53.00;;;;;;5003325;28;20068;-77
2022/03/26 01:44:01;;;;;;;21.50;10.75;;;5.90;52.90;;;;;;5006386;28;20034;-77
2022/03/26 01:46:26;;;;;;;24.55;12.10;;;5.90;53.00;;;;;;5002713;28;20052;-77
2022/03/26 01:48:52;;;;;;;24.10;12.27;;;5.90;53.10;;;;;;4984515;28;20033;-78
2022/03/26 01:51:18;;;;;;;17.48;10.00;;;5.90;53.10;;;;;;4984261;28;20056;-77
2022/03/26 01:53:45;;;;;;;19.42;10.40;;;5.80;53.10;;;;;;4990741;28;20037;-77
2022/03/26 01:56:11;;;;;;;23.13;11.15;;;5.80;53.30;;;;;;4986567;28;20036;-78
2022/03/26 01:58:36;;;;;;;22.77;11.30;;;5.70;53.30;;;;;;5004344;28;20045;-77
2022/03/26 02:01:02;;;;;;;21.65;10.80;;;5.70;53.30;;;;;;5001519;28;20081;-77
2022/03/26 02:03:27;;;;;;;20.90;10.68;;;5.60;53.40;;;;;;5001225;28;20668;-77
2022/03/26 02:05:55;;;;;;;20.83;9.88;;;5.60;53.60;;;;;;5004132;28;20605;-78
2022/03/26 02:08:20;;;;;;;19.80;10.65;;;5.60;53.70;;;;;;5008429;28;20543;-77
2022/03/26 02:10:45;;;;;;;23.15;10.73;;;5.60;53.80;;;;;;4987555;28;20137;-78
2022/03/26 02:13:11;;;;;;;22.42;9.82;;;5.50;53.90;;;;;;4972772;28;20045;-77
2022/03/26 02:15:37;;;;;;;22.67;10.65;;;5.50;53.90;;;;;;5004871;28;20033;-77
2022/03/26 02:18:04;;;;;;;23.77;10.77;;;5.50;54.00;;;;;;4997115;28;20042;-77
2022/03/26 02:20:30;;;;;;;24.38;11.02;;;5.50;54.00;;;;;;4955245;28;20034;-77
2022/03/26 02:22:56;;;;;;;21.65;10.02;;;5.50;54.00;;;;;;4968463;28;20053;-78
2022/03/26 02:25:22;;;;;;;21.52;10.85;;;5.40;54.10;;;;;;4967411;28;20038;-78
2022/03/26 02:27:47;;;;;;;24.95;10.45;;;5.40;54.10;;;;;;4960525;28;20043;-77
2022/03/26 02:30:13;;;;;;;25.27;9.70;;;5.30;54.10;;;;;;4966747;28;20038;-78
2022/03/26 02:32:38;;;;;;;23.85;10.20;;;5.20;54.10;;;;;;4970659;28;20038;-77
2022/03/26 02:35:04;;;;;;;25.25;10.07;;;5.20;54.20;;;;;;4972079;28;20038;-77
2022/03/26 02:37:30;;;;;;;23.33;10.95;;;5.10;54.30;;;;;;4983099;28;20061;-77
2022/03/26 02:39:56;;;;;;;20.67;11.23;;;5.10;54.60;;;;;;4948118;28;20038;-77
2022/03/26 02:42:21;;;;;;;21.40;10.60;;;5.10;54.80;;;;;;4957180;28;20065;-77
2022/03/26 02:44:47;;;;;;;20.65;10.48;;;5.10;54.80;;;;;;4982747;28;20100;-78
2022/03/26 02:47:13;;;;;;;21.38;10.43;;;5.00;54.80;;;;;;4972884;28;20038;-77
2022/03/26 02:49:38;;;;;;;20.90;9.70;;;5.10;54.90;;;;;;4959883;28;20034;-77
2022/03/26 02:52:04;;;;;;;26.13;11.48;;;5.00;54.90;;;;;;4979051;28;20050;-78
2022/03/26 02:54:30;;;;;;;19.17;9.32;;;5.00;55.00;;;;;;4981059;28;20061;-77
2022/03/26 02:56:55;;;;;;;20.05;10.07;;;5.00;55.00;;;;;;4953067;28;20077;-78
2022/03/26 02:59:21;;;;;;;20.50;10.07;;;5.00;55.70;;;;;;4982808;28;20030;-78
2022/03/26 03:01:47;;;;;;;26.90;11.02;;;4.90;55.10;;;;;;4970729;28;20077;-78
2022/03/26 03:04:12;;;;;;;26.90;10.93;;;4.90;55.10;;;;;;4974214;28;20424;-77
2022/03/26 03:06:38;;;;;;;22.75;10.57;;;4.90;55.20;;;;;;4980147;28;20559;-78
2022/03/26 03:09:04;;;;;;;16.73;8.85;;;4.90;55.30;;;;;;4979082;28;20038;-78
2022/03/26 03:11:30;;;;;;;21.55;9.95;;;4.90;55.50;;;;;;4969286;28;20045;-77
2022/03/26 03:13:56;;;;;;;24.38;11.25;;;4.90;55.60;;;;;;4966089;28;20041;-78
2022/03/26 03:16:21;;;;;;;22.05;10.45;;;4.90;55.60;;;;;;4960300;28;20133;-78
2022/03/26 03:18:47;;;;;;;21.85;10.02;;;4.80;55.60;;;;;;4962168;28;20116;-78
2022/03/26 03:21:12;;;;;;;20.88;10.60;;;4.80;55.60;;;;;;4988494;28;20463;-77
2022/03/26 03:23:38;;;;;;;20.42;9.48;;;4.80;55.70;;;;;;4976719;28;20820;-78
2022/03/26 03:26:03;;;;;;;22.33;10.05;;;4.80;55.70;;;;;;4966306;28;20122;-79
2022/03/26 03:28:29;;;;;;;21.02;9.82;;;4.70;55.80;;;;;;4995246;28;20118;-77
2022/03/26 03:30:55;;;;;;;21.35;9.85;;;4.70;55.90;;;;;;4982755;28;20045;-79
2022/03/26 03:33:20;;;;;;;19.60;10.40;;;4.60;55.90;;;;;;4997049;28;20129;-78
2022/03/26 03:35:46;;;;;;;21.35;10.30;;;4.60;55.90;;;;;;4986096;28;20057;-78
2022/03/26 03:38:11;;;;;;;20.50;10.20;;;4.60;56.00;;;;;;4984574;28;20034;-78
2022/03/26 03:40:37;;;;;;;23.77;10.90;;;4.60;56.00;;;;;;4962063;28;20033;-78
2022/03/26 03:43:02;;;;;;;20.90;9.80;;;4.60;56.00;;;;;;4976270;28;20038;-78
2022/03/26 03:45:28;;;;;;;20.25;9.13;;;4.50;56.00;;;;;;4951030;28;20035;-78
2022/03/26 03:47:53;;;;;;;19.10;9.38;;;4.40;56.10;;;;;;4968562;28;20073;-77
2022/03/26 03:50:19;;;;;;;18.02;10.00;;;4.40;56.30;;;;;;4965324;28;20030;-78
2022/03/26 03:52:45;;;;;;;21.13;10.65;;;4.30;56.40;;;;;;4980772;28;20117;-78
2022/03/26 03:55:10;;;;;;;23.13;10.23;;;4.30;56.50;;;;;;4981808;28;20050;-78
2022/03/26 03:57:41;;;;;;;21.48;9.48;;;4.30;56.60;;;;;;4979633;28;20029;-77
2022/03/26 04:00:07;;;;;;;16.70;8.73;;;4.30;56.80;;;;;;4994442;28;20038;-77
2022/03/26 04:02:34;;;;;;;23.33;10.50;;;4.30;56.70;;;;;;4995173;28;20034;-78
2022/03/26 04:05:00;;;;;;;23.48;9.75;;;4.30;56.80;;;;;;4990838;28;20026;-78
2022/03/26 04:07:25;;;;;;;21.77;10.02;;;4.30;56.90;;;;;;4968115;28;20140;-79
2022/03/26 04:09:51;;;;;;;20.42;10.27;;;4.20;56.90;;;;;;4983536;28;20062;-78
2022/03/26 04:12:16;;;;;;;20.27;10.10;;;4.20;57.50;;;;;;4972366;28;20057;-77
2022/03/26 04:14:43;;;;;;;21.67;9.82;;;4.20;57.00;;;;;;4975282;28;20138;-78
2022/03/26 04:17:10;;;;;;;30.83;10.10;;;4.10;57.00;;;;;;4971342;28;22457;-78
2022/03/26 04:19:36;;;;;;;21.75;10.35;;;4.10;57.10;;;;;;4976642;28;20077;-78
2022/03/26 04:22:02;;;;;;;19.90;10.05;;;4.10;57.10;;;;;;4991859;28;20105;-79
2022/03/26 04:24:27;;;;;;;19.98;9.75;;;4.00;57.10;;;;;;5009429;28;20419;-78
2022/03/26 04:26:53;;;;;;;22.15;10.27;;;4.00;57.20;;;;;;5000099;28;20164;-77
2022/03/26 04:29:19;;;;;;;19.00;9.18;;;4.00;57.40;;;;;;4992342;28;20073;-78
2022/03/26 04:31:46;;;;;;;21.98;10.07;;;4.00;57.40;;;;;;5001321;28;20034;-78
2022/03/26 04:34:12;;;;;;;21.13;9.45;;;4.00;57.60;;;;;;4987089;28;20697;-78
2022/03/26 04:36:37;;;;;;;19.13;10.00;;;3.90;57.60;;;;;;4986938;28;20831;-77
2022/03/26 04:39:03;;;;;;;22.33;10.70;;;3.90;57.70;;;;;;5000533;28;20041;-79
2022/03/26 04:41:28;;;;;;;21.80;10.43;;;3.90;57.70;;;;;;4985567;28;20041;-78
2022/03/26 04:43:54;;;;;;;26.83;9.80;;;3.90;57.70;;;;;;4953946;28;20064;-78
2022/03/26 04:46:19;;;;;;;23.05;11.05;;;3.80;57.70;;;;;;5006276;28;20092;-77
2022/03/26 04:48:48;;;;;;;21.92;9.90;;;3.80;57.70;;;;;;4994726;28;20133;-78
2022/03/26 04:51:14;;;;;;;23.00;10.57;;;3.80;57.80;;;;;;5000599;28;20049;-78
2022/03/26 04:53:39;;;;;;;18.13;9.82;;;3.70;57.80;;;;;;4992142;28;20046;-78
2022/03/26 04:56:05;;;;;;;19.80;10.65;;;3.70;57.90;;;;;;4997626;28;20104;-78
2022/03/26 04:58:30;;;;;;;26.00;10.40;;;3.60;58.60;;;;;;4969203;28;20099;-78
2022/03/26 05:00:56;;;;;;;23.23;10.40;;;3.60;58.00;;;;;;5005992;28;20045;-78
2022/03/26 05:03:22;;;;;;;21.08;9.80;;;3.60;58.80;;;;;;4996087;28;20031;-78
2022/03/26 05:05:47;;;;;;;24.08;9.25;;;3.60;58.20;;;;;;5006236;28;20049;-78
2022/03/26 05:08:13;;;;;;;24.00;11.32;;;3.50;58.20;;;;;;5000836;28;20456;-78
2022/03/26 05:10:38;;;;;;;23.10;10.60;;;3.60;58.40;;;;;;4993468;28;20042;-79
2022/03/26 05:13:04;;;;;;;21.23;9.70;;;3.60;58.40;;;;;;4987746;28;20072;-79
2022/03/26 05:15:29;;;;;;;25.10;10.07;;;3.60;58.40;;;;;;4992623;28;20037;-79
2022/03/26 05:17:56;;;;;;;27.40;11.55;;;3.50;58.50;;;;;;4989099;28;20026;-79
2022/03/26 05:20:21;;;;;;;21.75;9.68;;;3.50;58.50;;;;;;4978392;28;20026;-78
2022/03/26 05:22:47;;;;;;;21.48;9.77;;;3.50;58.60;;;;;;4979480;28;20035;-77
2022/03/26 05:25:13;;;;;;;19.23;10.02;;;3.50;58.70;;;;;;4967930;28;20034;-77
2022/03/26 05:27:49;;;;;;;26.30;10.70;;;3.50;58.80;;;;;;4984097;28;20033;-78
2022/03/26 05:30:15;;;;;;;24.83;10.70;;;3.50;58.90;;;;;;4980192;28;20026;-79
2022/03/26 05:32:40;;;;;;;22.52;9.98;;;3.50;58.80;;;;;;4982227;28;20122;-80
2022/03/26 05:35:11;;;;;;;18.15;9.65;;;3.50;58.90;;;;;;4966586;28;20061;-79
2022/03/26 05:37:38;;;;;;;19.48;9.73;;;3.50;58.90;;;;;;4966797;28;20030;-78
2022/03/26 05:40:04;;;;;;;21.10;10.75;;;3.50;59.00;;;;;;4979096;28;20050;-77
2022/03/26 05:42:30;;;;;;;26.67;11.98;;;3.50;59.00;;;;;;4964509;28;20217;-77
2022/03/26 05:44:56;;;;;;;24.33;12.65;;;3.50;59.10;;;;;;4981874;28;20495;-78
2022/03/26 05:47:23;;;;;;;25.25;11.10;;;3.40;59.10;;;;;;4950642;28;20039;-77
2022/03/26 05:49:49;;;;;;;21.90;10.27;;;3.40;59.10;;;;;;4967761;28;20484;-78
2022/03/26 05:52:15;;;;;;;25.75;11.45;;;3.40;59.10;;;;;;4964696;28;20057;-78
2022/03/26 05:54:41;;;;;;;22.50;10.15;;;3.40;59.20;;;;;;4981677;28;20045;-78
2022/03/26 05:57:06;;;;;;;24.75;10.88;;;3.40;59.30;;;;;;4974599;28;20037;-79
2022/03/26 05:59:32;;;;;;;21.30;10.68;;;3.30;59.30;;;;;;4959129;28;20523;-79
2022/03/26 06:01:58;;;;;;;27.05;11.10;;;3.40;59.40;;;;;;4935082;28;20077;-79
2022/03/26 06:04:23;;;;;;;24.17;10.88;;;3.30;59.50;;;;;;4967420;28;20346;-78
2022/03/26 06:06:50;;;;;;;19.60;10.27;;;3.40;59.60;;;;;;4964039;28;20030;-78
2022/03/26 06:09:15;;;;;;;25.90;12.30;;;3.40;59.60;;;;;;4967547;28;20031;-78
2022/03/26 06:11:41;;;;;;;21.73;11.20;;;3.40;59.70;;;;;;4988445;28;20045;-78
2022/03/26 06:14:06;;;;;;;22.63;10.98;;;3.50;59.70;;;;;;4983039;28;20034;-77
2022/03/26 06:16:32;;;;;;;23.52;11.07;;;3.50;59.70;;;;;;4980591;28;20038;-79
2022/03/26 06:18:58;;;;;;;25.25;12.00;;;3.50;59.70;;;;;;4965459;28;20073;-79
2022/03/26 06:21:23;;;;;;;26.40;11.82;;;3.60;59.80;;;;;;4983639;28;20114;-79
2022/03/26 06:23:49;;;;;;;25.42;12.90;;;3.60;59.90;;;;;;4953709;28;20512;-77
2022/03/26 06:26:14;;;;;;;31.45;14.57;;;3.70;60.00;;;;;;4944560;28;20536;-79
2022/03/26 06:28:40;;;;;;;37.13;15.65;;;3.70;60.00;;;;;;4966946;28;20045;-78
2022/03/26 06:31:08;;;;;;;34.05;14.68;;;3.80;60.20;;;;;;4987529;28;20588;-77
2022/03/26 06:33:34;;;;;;;24.25;12.13;;;3.80;60.20;;;;;;4979823;28;20038;-78
2022/03/26 06:36:00;;;;;;;24.45;12.18;;;3.80;60.20;;;;;;4994076;28;20057;-81
2022/03/26 06:38:31;;;;;;;21.77;11.48;;;3.90;60.20;;;;;;4984161;28;20033;-79
2022/03/26 06:40:56;;;;;;;25.52;12.48;;;4.00;60.20;;;;;;4973340;28;20117;-79
2022/03/26 06:43:22;;;;;;;26.00;11.68;;;4.00;60.10;;;;;;4958086;28;20860;-77
2022/03/26 06:45:47;;;;;;;21.08;11.00;;;4.10;60.20;;;;;;4979247;28;20026;-77
2022/03/26 06:48:13;;;;;;;23.20;10.57;;;4.10;60.20;;;;;;4969959;28;20033;-79
2022/03/26 06:50:38;;;;;;;25.73;11.95;;;4.20;60.20;;;;;;4973222;28;20039;-78
2022/03/26 06:53:04;;;;;;;20.33;10.13;;;4.30;60.20;;;;;;4983374;28;20400;-78
2022/03/26 06:55:29;;;;;;;23.95;11.27;;;4.40;60.30;;;;;;4981766;28;20489;-78
2022/03/26 06:57:55;;;;;;;23.95;11.30;;;4.50;60.30;;;;;;4953433;28;20034;-78
2022/03/26 07:00:21;;;;;;;28.17;11.88;;;4.60;60.30;;;;;;4962834;28;20030;-79
2022/03/26 07:02:46;;;;;;;26.45;12.25;;;4.70;60.20;;;;;;4988007;28;20037;-77
2022/03/26 07:05:12;;;;;;;23.13;11.38;;;4.80;60.30;;;;;;4972384;28;20042;-79
2022/03/26 07:07:38;;;;;;;24.52;12.10;;;4.90;60.30;;;;;;4984826;28;20052;-78
2022/03/26 07:10:03;;;;;;;29.45;12.98;;;5.00;60.20;;;;;;4983427;28;20086;-78
2022/03/26 07:12:29;;;;;;;25.52;12.00;;;5.10;60.30;;;;;;4973499;28;20046;-79
2022/03/26 07:14:54;;;;;;;30.35;12.55;;;5.20;60.30;;;;;;4965755;28;20484;-77
2022/03/26 07:17:20;;;;;;;30.95;14.48;;;5.30;60.20;;;;;;4981461;28;20034;-79
2022/03/26 07:19:45;;;;;;;22.52;12.38;;;5.40;60.10;;;;;;4973653;28;20041;-78
2022/03/26 07:22:11;;;;;;;24.30;11.13;;;5.50;60.10;;;;;;4965897;28;20048;-78
2022/03/26 07:24:37;;;;;;;27.90;12.40;;;5.70;60.10;;;;;;4985365;28;20034;-78
2022/03/26 07:27:02;;;;;;;26.55;12.57;;;5.80;60.10;;;;;;4952039;28;20050;-78
2022/03/26 07:29:28;;;;;;;27.65;12.68;;;5.90;60.00;;;;;;4963415;28;20056;-79
2022/03/26 07:31:54;;;;;;;23.52;12.38;;;6.00;60.00;;;;;;4965531;28;20076;-78
2022/03/26 07:34:20;;;;;;;25.98;13.48;;;6.20;60.00;;;;;;4975373;28;20045;-78
2022/03/26 07:36:46;;;;;;;24.58;12.80;;;6.40;60.00;;;;;;4968910;28;20049;-78
2022/03/26 07:39:12;;;;;;;26.15;13.20;;;6.50;59.90;;;;;;4974473;28;20030;-78
2022/03/26 07:41:38;;;;;;;23.80;12.88;;;6.70;59.80;;;;;;4973291;28;20487;-78
2022/03/26 07:44:04;;;;;;;25.25;12.18;;;6.80;59.80;;;;;;4980644;28;20061;-77
2022/03/26 07:46:29;;;;;;;24.15;12.00;;;7.00;59.70;;;;;;4979189;28;20039;-79
2022/03/26 07:48:55;;;;;;;27.35;12.23;;;7.20;59.70;;;;;;4979515;28;20054;-79
2022/03/26 07:51:20;;;;;;;23.83;12.18;;;7.40;59.50;;;;;;4978494;28;20189;-78
2022/03/26 07:53:46;;;;;;;22.45;11.70;;;7.60;59.30;;;;;;4971810;28;20084;-78
2022/03/26 07:56:11;;;;;;;22.45;11.75;;;7.70;59.10;;;;;;4952757;28;20507;-78
2022/03/26 07:58:37;;;;;;;23.85;12.25;;;7.90;59.00;;;;;;4977631;28;20042;-78
2022/03/26 08:01:03;;;;;;;21.75;10.98;;;8.10;58.80;;;;;;4977744;28;20251;-78
2022/03/26 08:03:28;;;;;;;22.75;12.35;;;8.30;58.60;;;;;;4961921;28;20054;-78
2022/03/26 08:05:54;;;;;;;21.48;12.38;;;8.40;58.40;;;;;;4958282;28;20801;-79
2022/03/26 08:08:19;;;;;;;21.38;11.18;;;8.60;58.40;;;;;;4985963;28;20035;-79
2022/03/26 08:10:45;;;;;;;21.70;11.85;;;8.80;58.30;;;;;;4960254;28;20073;-78
2022/03/26 08:13:10;;;;;;;23.40;12.25;;;9.00;58.10;;;;;;4967373;28;20116;-78
2022/03/26 08:15:36;;;;;;;30.10;12.80;;;9.20;58.00;;;;;;4960749;28;20656;-80
2022/03/26 08:18:03;;;;;;;22.13;12.35;;;9.40;57.90;;;;;;4977339;28;20034;-78
2022/03/26 08:20:31;;;;;;;23.48;11.95;;;9.60;57.80;;;;;;4950145;28;21048;-78
2022/03/26 08:22:57;;;;;;;24.25;12.25;;;9.80;57.60;;;;;;4976843;28;20108;-78
2022/03/26 08:28:08;;;;;;;28.55;12.88;;;10.30;57.30;;;;;;4960409;28;20145;-79
2022/03/26 08:30:33;;;;;;;30.02;13.57;;;10.50;57.00;;;;;;4956351;28;20038;-78
2022/03/26 08:33:01;;;;;;;24.88;13.02;;;10.70;56.80;;;;;;4984249;28;20100;-80
2022/03/26 08:35:27;;;;;;;24.23;12.32;;;11.00;56.60;;;;;;4968909;28;20145;-78
2022/03/26 08:37:52;;;;;;;27.90;13.73;;;11.20;56.30;;;;;;4983578;28;20469;-79
2022/03/26 08:40:18;;;;;;;32.55;13.40;;;11.40;56.00;;;;;;4976336;28;20113;-78
2022/03/26 08:42:43;;;;;;;25.05;12.85;;;11.70;55.80;;;;;;4971102;28;20118;-79
2022/03/26 08:45:09;;;;;;;28.02;14.75;;;11.90;55.50;;;;;;4983310;28;20109;-78
2022/03/26 08:47:35;;;;;;;28.08;13.38;;;12.10;55.20;;;;;;4984398;28;20031;-79
2022/03/26 08:50:00;;;;;;;32.13;14.07;;;12.30;54.90;;;;;;4973071;28;20495;-78
2022/03/26 08:52:26;;;;;;;30.63;13.38;;;12.60;54.70;;;;;;4984154;28;20112;-78
2022/03/26 08:54:51;;;;;;;29.23;14.43;;;12.80;54.50;;;;;;4977605;28;20072;-79
2022/03/26 08:57:17;;;;;;;27.73;12.40;;;13.10;54.20;;;;;;4973370;28;20077;-78
2022/03/26 08:59:43;;;;;;;29.02;14.70;;;13.30;53.80;;;;;;4955910;28;20065;-78
2022/03/26 09:02:08;;;;;;;28.60;14.40;;;13.50;53.60;;;;;;4982604;28;20552;-78
2022/03/26 09:04:34;;;;;;;28.90;13.60;;;13.80;53.40;;;;;;4984617;28;20864;-79
2022/03/26 09:06:59;;;;;;;29.63;13.05;;;14.00;53.10;;;;;;4985018;28;20034;-79
2022/03/26 09:09:25;;;;;;;29.63;14.98;;;14.20;52.80;;;;;;4964299;28;20030;-78
2022/03/26 09:11:50;;;;;;;27.15;14.52;;;14.50;52.50;;;;;;4943671;28;20033;-79
2022/03/26 09:14:16;;;;;;;31.90;17.10;;;14.70;52.20;;;;;;4951176;28;20034;-78
2022/03/26 09:16:41;;;;;;;30.23;14.52;;;14.90;51.70;;;;;;4964458;28;20030;-79
2022/03/26 09:19:07;;;;;;;26.13;13.73;;;15.10;51.20;;;;;;4974643;28;20069;-79
2022/03/26 09:21:33;;;;;;;31.45;16.35;;;15.30;51.60;;;;;;4979728;28;20038;-79
2022/03/26 09:23:58;;;;;;;42.05;16.15;;;15.50;50.70;;;;;;4967544;28;20038;-79
2022/03/26 09:26:24;;;;;;;30.38;14.88;;;15.70;50.30;;;;;;4974930;28;20046;-79
2022/03/26 09:28:50;;;;;;;29.15;15.80;;;16.00;50.10;;;;;;4969188;28;20169;-77
2022/03/26 09:31:15;;;;;;;29.90;14.10;;;16.20;49.60;;;;;;4974021;28;20106;-78
2022/03/26 09:33:42;;;;;;;34.03;15.32;;;16.50;49.30;;;;;;4971969;28;20073;-80
2022/03/26 09:36:07;;;;;;;23.55;14.48;;;16.70;48.90;;;;;;4968183;28;20153;-79
2022/03/26 09:38:33;;;;;;;34.22;16.40;;;16.90;48.40;;;;;;4985782;28;20764;-79
2022/03/26 09:40:58;;;;;;;27.20;15.60;;;17.20;48.10;;;;;;4974727;28;20039;-80
2022/03/26 09:43:24;;;;;;;31.73;16.48;;;17.40;47.40;;;;;;4975342;28;20045;-79
2022/03/26 09:45:49;;;;;;;35.28;16.80;;;17.60;47.20;;;;;;4986245;28;20096;-80
2022/03/26 09:48:15;;;;;;;28.65;15.18;;;17.80;46.80;;;;;;4983888;28;20022;-80
2022/03/26 09:50:41;;;;;;;25.80;14.15;;;17.90;46.30;;;;;;4978442;28;20030;-79
2022/03/26 09:53:12;;;;;;;34.13;17.52;;;18.10;46.20;;;;;;4970567;28;20027;-79
2022/03/26 09:55:38;;;;;;;35.15;15.57;;;18.30;45.90;;;;;;4956356;28;20034;-79
2022/03/26 09:58:04;;;;;;;25.23;13.38;;;18.50;45.50;;;;;;4982194;28;20134;-79
2022/03/26 10:00:29;;;;;;;26.42;13.25;;;18.70;45.30;;;;;;4977157;28;20502;-79
2022/03/26 10:02:55;;;;;;;25.92;12.18;;;19.00;45.00;;;;;;4978192;28;20030;-81
2022/03/26 10:05:20;;;;;;;22.95;12.32;;;19.20;44.60;;;;;;4979462;28;20034;-79
2022/03/26 10:07:47;;;;;;;26.58;13.75;;;19.50;44.30;;;;;;4974027;28;20030;-79
2022/03/26 10:10:21;;;;;;;20.35;12.40;;;19.80;44.00;;;;;;4981581;28;20038;-79
2022/03/26 10:12:50;;;;;;;26.35;12.13;;;20.00;42.90;;;;;;4936208;28;20073;-80
2022/03/26 10:15:15;;;;;;;25.45;12.50;;;20.20;42.90;;;;;;4955100;28;20042;-79
2022/03/26 10:17:41;;;;;;;24.02;13.07;;;20.30;42.90;;;;;;4949905;28;20034;-79
2022/03/26 10:20:13;;;;;;;22.05;12.45;;;20.50;42.10;;;;;;4990722;28;20038;-79
2022/03/26 10:22:50;;;;;;;16.73;10.57;;;20.70;41.30;;;;;;4981998;28;20092;-80
2022/03/26 10:25:17;;;;;;;25.13;12.23;;;20.90;41.00;;;;;;4991389;28;20084;-80
2022/03/26 10:27:45;;;;;;;26.15;12.15;;;;;;;;;;4949899;28;20042;-79
2022/03/26 10:30:11;;;;;;;24.30;12.02;;;;;;;;;;4979662;28;20551;-80
2022/03/26 10:32:56;;;;;;;20.05;10.68;;;21.20;58.90;;;;;;4997190;28;20050;-80
2022/03/26 10:35:25;;;;;;;23.38;12.10;;;;;;;;;;4963047;28;20046;-80
2022/03/26 10:37:58;;;;;;;22.48;12.38;;;21.60;64.90;;;;;;4977212;28;20042;-80
2022/03/26 10:40:37;;;;;;;23.35;12.05;;;21.90;58.90;;;;;;4980098;28;20508;-80
2022/03/26 10:43:03;;;;;;;21.20;11.90;;;;;;;;;;4980223;28;20449;-81
2022/03/26 10:45:29;;;;;;;21.85;12.18;;;;;;;;;;4999522;28;20058;-80
2022/03/26 10:47:59;;;;;;;20.77;10.95;;;;;;;;;;4968085;28;20042;-82
2022/03/26 10:50:25;;;;;;;24.75;11.82;;;;;;;;;;4976395;28;20042;-80
2022/03/26 10:52:55;;;;;;;26.25;12.48;;;;;;;;;;4996635;28;20068;-81
2022/03/26 10:55:21;;;;;;;28.13;13.15;;;;;;;;;;4993568;28;20037;-80
2022/03/26 10:57:48;;;;;;;24.40;11.48;;;;;;;;;;4988508;28;20085;-81
2022/03/26 11:00:14;;;;;;;22.95;11.07;;;;;;;;;;4966529;28;20042;-80
2022/03/26 11:02:41;;;;;;;44.58;15.23;;;;;;;;;;4994345;28;20042;-82
2022/03/26 11:05:07;;;;;;;35.60;13.18;;;;;;;;;;4989625;28;20034;-79
2022/03/26 11:07:33;;;;;;;21.77;9.55;;;;;;;;;;4984183;28;20050;-77
2022/03/26 11:09:59;;;;;;;16.77;9.93;;;;;;;;;;4989326;28;20042;-78
2022/03/26 11:12:26;;;;;;;23.30;11.30;;;;;;;;;;4997058;28;20638;-78
2022/03/26 11:14:52;;;;;;;38.05;13.95;;;;;;;;;;4985855;28;20444;-78
2022/03/26 11:17:50;;;;;;;25.67;11.85;;;;;;;;;;4988895;28;20092;-77
2022/03/26 11:20:34;;;;;;;19.92;10.05;;;;;;;;;;4946627;28;20060;-78
2022/03/26 11:23:03;;;;;;;21.98;10.48;;;;;;;;;;5002350;28;20069;-79
2022/03/26 11:25:38;;;;;;;19.88;10.85;;;;;;;;;;5014898;28;20037;-78
2022/03/26 11:28:10;;;;;;;18.27;9.85;;;;;;;;;;4998833;28;20042;-79
2022/03/26 11:30:39;;;;;;;20.73;11.60;;;;;;;;;;5002689;28;20082;-78
2022/03/26 11:33:11;;;;;;;18.77;10.95;;;;;;;;;;4985173;28;20076;-80
2022/03/26 11:35:43;;;;;;;19.48;10.13;;;;;;;;;;5017334;28;20106;-79
2022/03/26 11:38:09;;;;;;;20.30;10.70;;;;;;;;;;5002243;28;20435;-79
2022/03/26 11:40:53;;;;;;;18.15;10.23;;;;;;;;;;5008285;28;20030;-79
2022/03/26 11:43:38;;;;;;;18.30;9.30;;;;;;;;;;5008263;28;21765;-79
2022/03/26 11:51:33;;;;;;;20.98;11.10;;;25.50;47.10;;;;;;5003402;28;20100;-78
2022/03/26 11:54:06;;;;;;;19.70;11.00;;;25.70;42.60;;;;;;5010630;28;20042;-78
2022/03/26 11:56:32;;;;;;;15.80;9.45;;;25.70;37.10;;;;;;5015007;28;20057;-78
2022/03/26 11:59:10;;;;;;;16.10;10.23;;;25.90;35.70;;;;;;5010517;28;20069;-79
2022/03/26 12:01:37;;;;;;;22.00;11.25;;;25.90;31.80;;;;;;5001893;28;20713;-79
2022/03/26 12:04:15;;;;;;;22.90;9.38;;;26.00;31.80;;;;;;4979859;28;20052;-79
2022/03/26 12:06:56;;;;;;;25.77;13.10;;;26.10;31.50;;;;;;4972411;28;20640;-79
2022/03/26 12:09:35;;;;;;;22.42;11.73;;;26.10;31.10;;;;;;5007068;28;20037;-78
2022/03/26 12:12:12;;;;;;;19.00;10.15;;;26.20;31.10;;;;;;4963166;28;20520;-79
2022/03/26 12:15:05;;;;;;;17.65;9.98;;;26.20;30.90;;;;;;4994185;28;20045;-79
2022/03/26 12:18:05;;;;;;;21.27;10.90;;;26.40;30.20;;;;;;5010303;28;20041;-78
2022/03/26 12:20:35;;;;;;;17.35;10.32;;;26.40;30.30;;;;;;5010167;28;20042;-79
2022/03/26 12:23:12;;;;;;;22.10;10.05;;;26.50;30.70;;;;;;5009052;28;20049;-78
2022/03/26 12:25:42;;;;;;;16.42;8.40;;;26.60;30.70;;;;;;4994619;28;20117;-79
2022/03/26 12:28:08;;;;;;;20.13;8.57;;;26.60;30.50;;;;;;4999919;28;20410;-79
2022/03/26 12:30:33;;;;;;;12.75;7.35;;;26.60;30.40;;;;;;4981432;28;20273;-81
2022/03/26 12:32:59;;;;;;;15.07;7.38;;;26.60;30.20;;;;;;4999441;28;20046;-80
2022/03/26 12:35:25;;;;;;;13.10;7.00;;;26.50;29.90;;;;;;5001743;28;20104;-80
2022/03/26 12:37:51;;;;;;;16.13;8.48;;;26.60;29.90;;;;;;5010141;28;20029;-80
2022/03/26 12:40:16;;;;;;;12.32;7.70;;;26.60;29.70;;;;;;5012132;28;20372;-80
2022/03/26 12:42:42;;;;;;;13.82;7.72;;;26.60;29.50;;;;;;4990031;28;20040;-79
2022/03/26 12:45:15;;;;;;;14.52;8.65;;;26.70;29.50;;;;;;5010209;28;20099;-80
2022/03/26 12:47:45;;;;;;;19.45;9.43;;;26.70;29.10;;;;;;4983309;28;20042;-79
2022/03/26 12:50:11;;;;;;;14.00;8.67;;;26.90;29.30;;;;;;4980399;28;20409;-80
2022/03/26 12:52:37;;;;;;;22.15;9.55;;;26.90;29.40;;;;;;4995833;28;20791;-80